sensor_id;sensor_type;location;lat;lon;timestamp;P1;durP1;ratioP1;P2;durP2;ratioP2
15153;SDS011;7677;41.896;25.004;2023-07-20T00:00:14;3.63;;;3.20;;
15153;SDS011;7677;41.896;25.004;2023-07-20T00:02:42;3.55;;;3.15;;
15153;SDS011;7677;41.896;25.004;2023-07-20T00:05:09;3.63;;;3.25;;
15153;SDS011;7677;41.896;25.004;2023-07-20T00:07:36;3.72;;;2.75;;
15153;SDS011;7677;41.896;25.004;2023-07-20T00:10:05;3.78;;;2.95;;
15153;SDS011;7677;41.896;25.004;2023-07-20T00:12:33;4.10;;;3.00;;
15153;SDS011;7677;41.896;25.004;2023-07-20T00:15:00;3.80;;;3.25;;
15153;SDS011;7677;41.896;25.004;2023-07-20T00:17:27;5.03;;;3.58;;
15153;SDS011;7677;41.896;25.004;2023-07-20T00:19:54;4.45;;;3.08;;
15153;SDS011;7677;41.896;25.004;2023-07-20T00:22:21;4.97;;;2.95;;
15153;SDS011;7677;41.896;25.004;2023-07-20T00:24:48;5.40;;;3.15;;
15153;SDS011;7677;41.896;25.004;2023-07-20T00:27:16;4.47;;;3.63;;
15153;SDS011;7677;41.896;25.004;2023-07-20T00:29:43;3.55;;;2.88;;
15153;SDS011;7677;41.896;25.004;2023-07-20T00:32:10;3.67;;;2.97;;
15153;SDS011;7677;41.896;25.004;2023-07-20T00:34:37;4.07;;;3.03;;
15153;SDS011;7677;41.896;25.004;2023-07-20T00:37:04;5.68;;;3.53;;
15153;SDS011;7677;41.896;25.004;2023-07-20T00:39:31;3.15;;;2.72;;
15153;SDS011;7677;41.896;25.004;2023-07-20T00:41:58;3.35;;;2.90;;
15153;SDS011;7677;41.896;25.004;2023-07-20T00:44:26;4.32;;;3.35;;
15153;SDS011;7677;41.896;25.004;2023-07-20T00:46:53;4.07;;;3.38;;
15153;SDS011;7677;41.896;25.004;2023-07-20T00:49:20;4.35;;;3.40;;
15153;SDS011;7677;41.896;25.004;2023-07-20T00:51:49;4.50;;;3.55;;
15153;SDS011;7677;41.896;25.004;2023-07-20T00:54:16;6.57;;;3.63;;
15153;SDS011;7677;41.896;25.004;2023-07-20T00:56:43;3.88;;;3.33;;
15153;SDS011;7677;41.896;25.004;2023-07-20T00:59:11;6.80;;;3.45;;
15153;SDS011;7677;41.896;25.004;2023-07-20T01:01:39;6.50;;;3.50;;
15153;SDS011;7677;41.896;25.004;2023-07-20T01:04:06;3.90;;;3.47;;
15153;SDS011;7677;41.896;25.004;2023-07-20T01:06:36;4.50;;;3.60;;
15153;SDS011;7677;41.896;25.004;2023-07-20T01:09:10;4.50;;;3.97;;
15153;SDS011;7677;41.896;25.004;2023-07-20T01:11:43;4.68;;;3.70;;
15153;SDS011;7677;41.896;25.004;2023-07-20T01:14:16;4.25;;;3.72;;
15153;SDS011;7677;41.896;25.004;2023-07-20T01:16:45;5.55;;;3.58;;
15153;SDS011;7677;41.896;25.004;2023-07-20T01:19:14;4.93;;;3.28;;
15153;SDS011;7677;41.896;25.004;2023-07-20T01:21:42;6.90;;;3.50;;
15153;SDS011;7677;41.896;25.004;2023-07-20T01:30:18;3.50;;;3.20;;
15153;SDS011;7677;41.896;25.004;2023-07-20T01:33:00;4.15;;;3.75;;
15153;SDS011;7677;41.896;25.004;2023-07-20T01:35:29;3.70;;;3.38;;
15153;SDS011;7677;41.896;25.004;2023-07-20T01:37:56;7.55;;;3.97;;
15153;SDS011;7677;41.896;25.004;2023-07-20T01:40:24;4.15;;;3.50;;
15153;SDS011;7677;41.896;25.004;2023-07-20T01:42:52;3.75;;;3.10;;
15153;SDS011;7677;41.896;25.004;2023-07-20T01:45:19;4.43;;;3.60;;
15153;SDS011;7677;41.896;25.004;2023-07-20T01:47:46;4.82;;;3.45;;
15153;SDS011;7677;41.896;25.004;2023-07-20T01:50:14;8.45;;;3.53;;
15153;SDS011;7677;41.896;25.004;2023-07-20T01:52:41;6.28;;;3.42;;
15153;SDS011;7677;41.896;25.004;2023-07-20T01:55:08;4.90;;;3.70;;
15153;SDS011;7677;41.896;25.004;2023-07-20T01:57:35;5.57;;;4.05;;
15153;SDS011;7677;41.896;25.004;2023-07-20T02:00:03;5.03;;;3.63;;
15153;SDS011;7677;41.896;25.004;2023-07-20T02:02:32;5.22;;;3.33;;
15153;SDS011;7677;41.896;25.004;2023-07-20T02:04:59;4.68;;;3.67;;
15153;SDS011;7677;41.896;25.004;2023-07-20T02:07:27;4.30;;;3.72;;
15153;SDS011;7677;41.896;25.004;2023-07-20T02:09:54;6.00;;;3.53;;
15153;SDS011;7677;41.896;25.004;2023-07-20T02:12:21;3.65;;;3.15;;
15153;SDS011;7677;41.896;25.004;2023-07-20T02:14:48;4.93;;;3.40;;
15153;SDS011;7677;41.896;25.004;2023-07-20T02:17:16;4.15;;;3.55;;
15153;SDS011;7677;41.896;25.004;2023-07-20T02:19:43;7.68;;;3.75;;
15153;SDS011;7677;41.896;25.004;2023-07-20T02:22:10;6.50;;;3.67;;
15153;SDS011;7677;41.896;25.004;2023-07-20T02:24:38;5.90;;;3.38;;
15153;SDS011;7677;41.896;25.004;2023-07-20T02:27:05;4.85;;;3.72;;
15153;SDS011;7677;41.896;25.004;2023-07-20T02:29:33;4.00;;;3.65;;
15153;SDS011;7677;41.896;25.004;2023-07-20T02:32:01;6.05;;;3.25;;
15153;SDS011;7677;41.896;25.004;2023-07-20T02:34:28;9.20;;;4.25;;
15153;SDS011;7677;41.896;25.004;2023-07-20T02:36:55;4.95;;;3.38;;
15153;SDS011;7677;41.896;25.004;2023-07-20T02:39:23;5.35;;;3.22;;
15153;SDS011;7677;41.896;25.004;2023-07-20T02:41:51;5.07;;;3.80;;
15153;SDS011;7677;41.896;25.004;2023-07-20T02:44:19;4.35;;;3.10;;
15153;SDS011;7677;41.896;25.004;2023-07-20T02:46:46;3.90;;;3.03;;
15153;SDS011;7677;41.896;25.004;2023-07-20T02:49:14;3.83;;;3.38;;
15153;SDS011;7677;41.896;25.004;2023-07-20T02:51:41;4.35;;;3.38;;
15153;SDS011;7677;41.896;25.004;2023-07-20T02:54:08;5.22;;;4.05;;
15153;SDS011;7677;41.896;25.004;2023-07-20T02:56:35;4.10;;;3.40;;
15153;SDS011;7677;41.896;25.004;2023-07-20T02:59:04;7.20;;;4.22;;
15153;SDS011;7677;41.896;25.004;2023-07-20T03:01:31;6.20;;;3.58;;
15153;SDS011;7677;41.896;25.004;2023-07-20T03:03:58;3.47;;;3.17;;
15153;SDS011;7677;41.896;25.004;2023-07-20T03:06:25;4.32;;;3.50;;
15153;SDS011;7677;41.896;25.004;2023-07-20T03:08:52;4.05;;;3.50;;
15153;SDS011;7677;41.896;25.004;2023-07-20T03:11:19;4.90;;;3.70;;
15153;SDS011;7677;41.896;25.004;2023-07-20T03:13:47;4.95;;;3.50;;
15153;SDS011;7677;41.896;25.004;2023-07-20T03:16:17;6.05;;;3.28;;
15153;SDS011;7677;41.896;25.004;2023-07-20T03:18:45;5.88;;;3.67;;
15153;SDS011;7677;41.896;25.004;2023-07-20T03:21:12;4.88;;;3.65;;
15153;SDS011;7677;41.896;25.004;2023-07-20T03:23:40;8.25;;;3.78;;
15153;SDS011;7677;41.896;25.004;2023-07-20T03:26:07;4.85;;;3.63;;
15153;SDS011;7677;41.896;25.004;2023-07-20T03:28:34;3.88;;;3.42;;
15153;SDS011;7677;41.896;25.004;2023-07-20T03:31:01;3.72;;;3.30;;
15153;SDS011;7677;41.896;25.004;2023-07-20T03:33:30;4.55;;;3.55;;
15153;SDS011;7677;41.896;25.004;2023-07-20T03:35:57;5.28;;;3.70;;
15153;SDS011;7677;41.896;25.004;2023-07-20T03:38:25;4.32;;;3.47;;
15153;SDS011;7677;41.896;25.004;2023-07-20T03:40:53;3.30;;;2.92;;
15153;SDS011;7677;41.896;25.004;2023-07-20T03:43:22;6.53;;;3.70;;
15153;SDS011;7677;41.896;25.004;2023-07-20T03:45:49;5.03;;;3.53;;
15153;SDS011;7677;41.896;25.004;2023-07-20T03:48:17;5.03;;;3.80;;
15153;SDS011;7677;41.896;25.004;2023-07-20T03:50:46;5.38;;;4.07;;
15153;SDS011;7677;41.896;25.004;2023-07-20T03:53:15;4.03;;;3.63;;
15153;SDS011;7677;41.896;25.004;2023-07-20T03:55:44;4.82;;;3.75;;
15153;SDS011;7677;41.896;25.004;2023-07-20T03:58:11;5.40;;;3.65;;
15153;SDS011;7677;41.896;25.004;2023-07-20T04:00:38;3.88;;;3.28;;
15153;SDS011;7677;41.896;25.004;2023-07-20T04:03:05;6.07;;;3.58;;
15153;SDS011;7677;41.896;25.004;2023-07-20T04:05:33;3.33;;;3.03;;
15153;SDS011;7677;41.896;25.004;2023-07-20T04:08:01;5.68;;;3.90;;
15153;SDS011;7677;41.896;25.004;2023-07-20T04:10:28;4.25;;;3.42;;
15153;SDS011;7677;41.896;25.004;2023-07-20T04:12:55;4.97;;;3.55;;
15153;SDS011;7677;41.896;25.004;2023-07-20T04:15:22;5.05;;;3.53;;
15153;SDS011;7677;41.896;25.004;2023-07-20T04:17:49;4.57;;;3.40;;
15153;SDS011;7677;41.896;25.004;2023-07-20T04:20:16;4.50;;;3.42;;
15153;SDS011;7677;41.896;25.004;2023-07-20T04:22:44;5.63;;;4.05;;
15153;SDS011;7677;41.896;25.004;2023-07-20T04:25:12;5.35;;;3.50;;
15153;SDS011;7677;41.896;25.004;2023-07-20T04:27:39;4.75;;;3.85;;
15153;SDS011;7677;41.896;25.004;2023-07-20T04:30:07;4.78;;;4.22;;
15153;SDS011;7677;41.896;25.004;2023-07-20T04:32:34;4.65;;;3.88;;
15153;SDS011;7677;41.896;25.004;2023-07-20T04:35:05;6.97;;;3.67;;
15153;SDS011;7677;41.896;25.004;2023-07-20T04:37:32;4.85;;;4.07;;
15153;SDS011;7677;41.896;25.004;2023-07-20T04:39:59;5.35;;;4.05;;
15153;SDS011;7677;41.896;25.004;2023-07-20T04:42:28;5.20;;;3.50;;
15153;SDS011;7677;41.896;25.004;2023-07-20T04:44:55;4.20;;;3.80;;
15153;SDS011;7677;41.896;25.004;2023-07-20T04:47:22;3.55;;;3.25;;
15153;SDS011;7677;41.896;25.004;2023-07-20T04:49:49;6.43;;;3.92;;
15153;SDS011;7677;41.896;25.004;2023-07-20T04:52:16;4.03;;;3.63;;
15153;SDS011;7677;41.896;25.004;2023-07-20T04:54:43;4.88;;;4.20;;
15153;SDS011;7677;41.896;25.004;2023-07-20T04:57:11;3.88;;;3.55;;
15153;SDS011;7677;41.896;25.004;2023-07-20T04:59:39;8.38;;;3.97;;
15153;SDS011;7677;41.896;25.004;2023-07-20T05:02:06;5.78;;;3.70;;
15153;SDS011;7677;41.896;25.004;2023-07-20T05:04:33;6.68;;;4.18;;
15153;SDS011;7677;41.896;25.004;2023-07-20T05:07:00;7.43;;;3.78;;
15153;SDS011;7677;41.896;25.004;2023-07-20T05:09:27;4.78;;;3.90;;
15153;SDS011;7677;41.896;25.004;2023-07-20T05:11:54;4.63;;;3.70;;
15153;SDS011;7677;41.896;25.004;2023-07-20T05:14:21;4.22;;;3.78;;
15153;SDS011;7677;41.896;25.004;2023-07-20T05:16:50;4.55;;;3.60;;
15153;SDS011;7677;41.896;25.004;2023-07-20T05:19:17;3.47;;;3.17;;
15153;SDS011;7677;41.896;25.004;2023-07-20T05:21:44;5.05;;;3.40;;
15153;SDS011;7677;41.896;25.004;2023-07-20T05:24:11;5.90;;;3.97;;
15153;SDS011;7677;41.896;25.004;2023-07-20T05:26:38;4.78;;;4.15;;
15153;SDS011;7677;41.896;25.004;2023-07-20T05:29:06;4.60;;;3.35;;
15153;SDS011;7677;41.896;25.004;2023-07-20T05:31:33;4.45;;;3.85;;
15153;SDS011;7677;41.896;25.004;2023-07-20T05:34:01;6.60;;;3.92;;
15153;SDS011;7677;41.896;25.004;2023-07-20T05:36:28;4.82;;;3.88;;
15153;SDS011;7677;41.896;25.004;2023-07-20T05:38:56;5.38;;;3.42;;
15153;SDS011;7677;41.896;25.004;2023-07-20T05:41:23;5.38;;;3.95;;
15153;SDS011;7677;41.896;25.004;2023-07-20T05:43:50;5.45;;;4.13;;
15153;SDS011;7677;41.896;25.004;2023-07-20T05:46:17;3.85;;;3.50;;
15153;SDS011;7677;41.896;25.004;2023-07-20T05:48:44;4.13;;;3.63;;
15153;SDS011;7677;41.896;25.004;2023-07-20T05:51:12;4.93;;;3.70;;
15153;SDS011;7677;41.896;25.004;2023-07-20T05:53:40;4.95;;;3.70;;
15153;SDS011;7677;41.896;25.004;2023-07-20T05:56:07;7.30;;;4.07;;
15153;SDS011;7677;41.896;25.004;2023-07-20T05:58:35;4.95;;;3.90;;
15153;SDS011;7677;41.896;25.004;2023-07-20T06:01:03;4.45;;;3.65;;
15153;SDS011;7677;41.896;25.004;2023-07-20T06:03:30;4.35;;;3.70;;
15153;SDS011;7677;41.896;25.004;2023-07-20T06:05:59;5.30;;;3.72;;
15153;SDS011;7677;41.896;25.004;2023-07-20T06:08:28;3.67;;;3.38;;
15153;SDS011;7677;41.896;25.004;2023-07-20T06:10:55;6.90;;;3.55;;
15153;SDS011;7677;41.896;25.004;2023-07-20T06:13:22;3.78;;;3.47;;
15153;SDS011;7677;41.896;25.004;2023-07-20T06:15:49;5.30;;;3.67;;
15153;SDS011;7677;41.896;25.004;2023-07-20T06:18:16;5.25;;;3.20;;
15153;SDS011;7677;41.896;25.004;2023-07-20T06:20:48;4.07;;;3.53;;
15153;SDS011;7677;41.896;25.004;2023-07-20T06:23:15;4.60;;;3.60;;
15153;SDS011;7677;41.896;25.004;2023-07-20T06:25:44;5.15;;;3.90;;
15153;SDS011;7677;41.896;25.004;2023-07-20T06:28:11;4.22;;;3.63;;
15153;SDS011;7677;41.896;25.004;2023-07-20T06:30:38;6.97;;;3.83;;
15153;SDS011;7677;41.896;25.004;2023-07-20T06:33:05;4.50;;;3.50;;
15153;SDS011;7677;41.896;25.004;2023-07-20T06:35:33;4.53;;;3.78;;
15153;SDS011;7677;41.896;25.004;2023-07-20T06:38:00;4.72;;;3.58;;
15153;SDS011;7677;41.896;25.004;2023-07-20T06:40:28;4.47;;;3.58;;
15153;SDS011;7677;41.896;25.004;2023-07-20T06:42:57;7.25;;;3.67;;
15153;SDS011;7677;41.896;25.004;2023-07-20T06:45:24;4.90;;;3.13;;
15153;SDS011;7677;41.896;25.004;2023-07-20T06:47:51;5.28;;;3.55;;
15153;SDS011;7677;41.896;25.004;2023-07-20T06:50:18;6.97;;;4.38;;
15153;SDS011;7677;41.896;25.004;2023-07-20T06:52:45;4.97;;;3.70;;
15153;SDS011;7677;41.896;25.004;2023-07-20T06:55:13;4.28;;;3.88;;
15153;SDS011;7677;41.896;25.004;2023-07-20T06:57:40;5.50;;;4.43;;
15153;SDS011;7677;41.896;25.004;2023-07-20T07:00:09;4.60;;;4.15;;
15153;SDS011;7677;41.896;25.004;2023-07-20T07:02:37;6.10;;;3.97;;
15153;SDS011;7677;41.896;25.004;2023-07-20T07:05:04;6.03;;;4.15;;
15153;SDS011;7677;41.896;25.004;2023-07-20T07:07:32;4.63;;;3.83;;
15153;SDS011;7677;41.896;25.004;2023-07-20T07:09:59;4.70;;;3.97;;
15153;SDS011;7677;41.896;25.004;2023-07-20T07:12:27;6.32;;;3.78;;
15153;SDS011;7677;41.896;25.004;2023-07-20T07:14:54;4.80;;;4.25;;
15153;SDS011;7677;41.896;25.004;2023-07-20T07:17:22;5.63;;;3.75;;
15153;SDS011;7677;41.896;25.004;2023-07-20T07:19:50;5.03;;;3.97;;
15153;SDS011;7677;41.896;25.004;2023-07-20T07:22:18;3.90;;;3.22;;
15153;SDS011;7677;41.896;25.004;2023-07-20T07:24:46;6.68;;;3.75;;
15153;SDS011;7677;41.896;25.004;2023-07-20T07:27:13;5.43;;;3.95;;
15153;SDS011;7677;41.896;25.004;2023-07-20T07:29:41;4.38;;;3.67;;
15153;SDS011;7677;41.896;25.004;2023-07-20T07:32:09;5.35;;;4.13;;
15153;SDS011;7677;41.896;25.004;2023-07-20T07:34:38;5.72;;;3.95;;
15153;SDS011;7677;41.896;25.004;2023-07-20T07:37:05;4.05;;;3.65;;
15153;SDS011;7677;41.896;25.004;2023-07-20T07:39:32;5.13;;;3.47;;
15153;SDS011;7677;41.896;25.004;2023-07-20T07:41:59;5.40;;;3.58;;
15153;SDS011;7677;41.896;25.004;2023-07-20T07:44:26;4.55;;;3.63;;
15153;SDS011;7677;41.896;25.004;2023-07-20T07:46:53;5.10;;;3.67;;
15153;SDS011;7677;41.896;25.004;2023-07-20T07:49:20;5.63;;;3.90;;
15153;SDS011;7677;41.896;25.004;2023-07-20T07:51:49;3.85;;;3.50;;
15153;SDS011;7677;41.896;25.004;2023-07-20T07:54:16;4.13;;;3.67;;
15153;SDS011;7677;41.896;25.004;2023-07-20T07:56:43;3.78;;;3.38;;
15153;SDS011;7677;41.896;25.004;2023-07-20T07:59:10;4.60;;;3.53;;
15153;SDS011;7677;41.896;25.004;2023-07-20T08:01:37;5.43;;;4.30;;
15153;SDS011;7677;41.896;25.004;2023-07-20T08:04:04;5.07;;;3.95;;
15153;SDS011;7677;41.896;25.004;2023-07-20T08:06:31;5.45;;;3.70;;
15153;SDS011;7677;41.896;25.004;2023-07-20T08:08:59;6.07;;;3.63;;
15153;SDS011;7677;41.896;25.004;2023-07-20T08:11:27;4.20;;;3.60;;
15153;SDS011;7677;41.896;25.004;2023-07-20T08:13:55;6.07;;;4.00;;
15153;SDS011;7677;41.896;25.004;2023-07-20T08:16:23;4.85;;;3.60;;
15153;SDS011;7677;41.896;25.004;2023-07-20T08:18:50;4.03;;;3.63;;
15153;SDS011;7677;41.896;25.004;2023-07-20T08:21:17;4.15;;;3.75;;
15153;SDS011;7677;41.896;25.004;2023-07-20T08:23:44;5.13;;;4.10;;
15153;SDS011;7677;41.896;25.004;2023-07-20T08:26:12;5.43;;;4.18;;
15153;SDS011;7677;41.896;25.004;2023-07-20T08:28:39;7.13;;;3.83;;
15153;SDS011;7677;41.896;25.004;2023-07-20T08:31:06;6.18;;;4.00;;
15153;SDS011;7677;41.896;25.004;2023-07-20T08:33:33;5.32;;;4.00;;
15153;SDS011;7677;41.896;25.004;2023-07-20T08:36:00;4.28;;;3.45;;
15153;SDS011;7677;41.896;25.004;2023-07-20T08:38:28;6.38;;;3.72;;
15153;SDS011;7677;41.896;25.004;2023-07-20T08:40:55;5.07;;;4.28;;
15153;SDS011;7677;41.896;25.004;2023-07-20T08:43:26;3.55;;;3.25;;
15153;SDS011;7677;41.896;25.004;2023-07-20T08:45:54;5.30;;;4.03;;
15153;SDS011;7677;41.896;25.004;2023-07-20T08:48:22;5.63;;;3.80;;
15153;SDS011;7677;41.896;25.004;2023-07-20T08:50:49;4.80;;;4.18;;
15153;SDS011;7677;41.896;25.004;2023-07-20T08:53:17;4.85;;;4.07;;
15153;SDS011;7677;41.896;25.004;2023-07-20T08:55:44;5.55;;;4.18;;
15153;SDS011;7677;41.896;25.004;2023-07-20T08:58:12;4.45;;;4.05;;
15153;SDS011;7677;41.896;25.004;2023-07-20T09:00:41;7.80;;;3.92;;
15153;SDS011;7677;41.896;25.004;2023-07-20T09:03:08;4.03;;;3.63;;
15153;SDS011;7677;41.896;25.004;2023-07-20T09:05:36;6.35;;;3.67;;
15153;SDS011;7677;41.896;25.004;2023-07-20T09:08:04;5.72;;;4.25;;
15153;SDS011;7677;41.896;25.004;2023-07-20T09:10:31;6.75;;;4.20;;
15153;SDS011;7677;41.896;25.004;2023-07-20T09:12:58;5.45;;;4.07;;
15153;SDS011;7677;41.896;25.004;2023-07-20T09:15:25;5.43;;;4.20;;
15153;SDS011;7677;41.896;25.004;2023-07-20T09:17:54;8.32;;;4.20;;
15153;SDS011;7677;41.896;25.004;2023-07-20T09:20:21;5.95;;;3.90;;
15153;SDS011;7677;41.896;25.004;2023-07-20T09:22:48;4.07;;;3.75;;
15153;SDS011;7677;41.896;25.004;2023-07-20T09:25:18;4.60;;;4.20;;
15153;SDS011;7677;41.896;25.004;2023-07-20T09:27:46;4.45;;;4.05;;
15153;SDS011;7677;41.896;25.004;2023-07-20T09:30:14;6.22;;;4.30;;
15153;SDS011;7677;41.896;25.004;2023-07-20T09:32:43;4.03;;;3.70;;
15153;SDS011;7677;41.896;25.004;2023-07-20T09:35:16;4.30;;;3.72;;
15153;SDS011;7677;41.896;25.004;2023-07-20T09:37:46;4.00;;;3.70;;
15153;SDS011;7677;41.896;25.004;2023-07-20T09:40:16;6.00;;;4.10;;
15153;SDS011;7677;41.896;25.004;2023-07-20T09:42:43;10.93;;;4.10;;
15153;SDS011;7677;41.896;25.004;2023-07-20T09:45:11;5.75;;;4.50;;
15153;SDS011;7677;41.896;25.004;2023-07-20T09:47:38;7.32;;;4.55;;
15153;SDS011;7677;41.896;25.004;2023-07-20T09:50:06;5.82;;;4.13;;
15153;SDS011;7677;41.896;25.004;2023-07-20T09:52:38;4.40;;;4.00;;
15153;SDS011;7677;41.896;25.004;2023-07-20T09:55:09;7.22;;;4.50;;
15153;SDS011;7677;41.896;25.004;2023-07-20T09:57:37;7.10;;;5.10;;
15153;SDS011;7677;41.896;25.004;2023-07-20T10:00:05;6.72;;;4.80;;
15153;SDS011;7677;41.896;25.004;2023-07-20T10:02:40;4.97;;;3.95;;
15153;SDS011;7677;41.896;25.004;2023-07-20T10:05:09;4.38;;;3.90;;
15153;SDS011;7677;41.896;25.004;2023-07-20T10:07:40;4.18;;;3.78;;
15153;SDS011;7677;41.896;25.004;2023-07-20T10:10:10;6.78;;;4.55;;
15153;SDS011;7677;41.896;25.004;2023-07-20T10:12:38;5.70;;;4.70;;
15153;SDS011;7677;41.896;25.004;2023-07-20T10:15:09;5.45;;;4.13;;
15153;SDS011;7677;41.896;25.004;2023-07-20T10:17:39;5.82;;;4.28;;
15153;SDS011;7677;41.896;25.004;2023-07-20T10:20:14;5.88;;;4.35;;
15153;SDS011;7677;41.896;25.004;2023-07-20T10:22:44;6.25;;;4.05;;
15153;SDS011;7677;41.896;25.004;2023-07-20T10:25:12;5.63;;;4.45;;
15153;SDS011;7677;41.896;25.004;2023-07-20T10:27:40;5.93;;;4.15;;
15153;SDS011;7677;41.896;25.004;2023-07-20T10:30:07;4.18;;;3.78;;
15153;SDS011;7677;41.896;25.004;2023-07-20T10:32:34;5.03;;;4.25;;
15153;SDS011;7677;41.896;25.004;2023-07-20T10:35:02;5.75;;;4.15;;
15153;SDS011;7677;41.896;25.004;2023-07-20T10:37:46;5.18;;;4.45;;
15153;SDS011;7677;41.896;25.004;2023-07-20T10:40:26;4.75;;;4.22;;
15153;SDS011;7677;41.896;25.004;2023-07-20T10:42:58;4.90;;;4.35;;
15153;SDS011;7677;41.896;25.004;2023-07-20T10:45:37;4.68;;;4.10;;
15153;SDS011;7677;41.896;25.004;2023-07-20T10:48:13;4.72;;;4.00;;
15153;SDS011;7677;41.896;25.004;2023-07-20T10:50:41;5.35;;;4.30;;
15153;SDS011;7677;41.896;25.004;2023-07-20T10:53:14;5.10;;;4.20;;
15153;SDS011;7677;41.896;25.004;2023-07-20T10:55:42;7.90;;;4.50;;
15153;SDS011;7677;41.896;25.004;2023-07-20T10:58:10;6.80;;;4.68;;
15153;SDS011;7677;41.896;25.004;2023-07-20T11:03:29;4.75;;;4.30;;
15153;SDS011;7677;41.896;25.004;2023-07-20T11:05:57;4.72;;;4.30;;
15153;SDS011;7677;41.896;25.004;2023-07-20T11:08:41;4.75;;;4.35;;
15153;SDS011;7677;41.896;25.004;2023-07-20T11:11:21;4.65;;;4.18;;
15153;SDS011;7677;41.896;25.004;2023-07-20T11:13:58;5.40;;;4.28;;
15153;SDS011;7677;41.896;25.004;2023-07-20T11:16:33;5.35;;;4.32;;
15153;SDS011;7677;41.896;25.004;2023-07-20T11:19:04;5.65;;;4.53;;
15153;SDS011;7677;41.896;25.004;2023-07-20T11:21:35;5.80;;;4.18;;
15153;SDS011;7677;41.896;25.004;2023-07-20T11:24:05;7.60;;;4.70;;
15153;SDS011;7677;41.896;25.004;2023-07-20T11:26:43;5.38;;;4.07;;
15153;SDS011;7677;41.896;25.004;2023-07-20T11:29:11;4.70;;;4.10;;
15153;SDS011;7677;41.896;25.004;2023-07-20T11:31:38;5.20;;;4.32;;
15153;SDS011;7677;41.896;25.004;2023-07-20T11:34:05;6.25;;;4.50;;
15153;SDS011;7677;41.896;25.004;2023-07-20T11:36:33;5.88;;;5.07;;
15153;SDS011;7677;41.896;25.004;2023-07-20T11:39:00;4.70;;;4.22;;
15153;SDS011;7677;41.896;25.004;2023-07-20T11:41:31;5.05;;;4.18;;
15153;SDS011;7677;41.896;25.004;2023-07-20T11:43:59;5.72;;;4.50;;
15153;SDS011;7677;41.896;25.004;2023-07-20T11:46:27;7.45;;;4.65;;
15153;SDS011;7677;41.896;25.004;2023-07-20T11:48:57;5.80;;;4.70;;
15153;SDS011;7677;41.896;25.004;2023-07-20T11:51:25;5.40;;;4.70;;
15153;SDS011;7677;41.896;25.004;2023-07-20T11:53:53;6.63;;;4.72;;
15153;SDS011;7677;41.896;25.004;2023-07-20T11:56:20;5.57;;;4.13;;
15153;SDS011;7677;41.896;25.004;2023-07-20T11:58:49;5.05;;;4.53;;
15153;SDS011;7677;41.896;25.004;2023-07-20T12:01:17;4.88;;;4.13;;
15153;SDS011;7677;41.896;25.004;2023-07-20T12:03:45;4.78;;;4.10;;
15153;SDS011;7677;41.896;25.004;2023-07-20T12:06:12;5.18;;;4.65;;
15153;SDS011;7677;41.896;25.004;2023-07-20T12:08:40;4.80;;;4.30;;
15153;SDS011;7677;41.896;25.004;2023-07-20T12:11:07;9.68;;;4.18;;
15153;SDS011;7677;41.896;25.004;2023-07-20T12:13:35;6.22;;;4.65;;
15153;SDS011;7677;41.896;25.004;2023-07-20T12:16:11;8.45;;;4.10;;
15153;SDS011;7677;41.896;25.004;2023-07-20T12:18:39;4.35;;;3.95;;
15153;SDS011;7677;41.896;25.004;2023-07-20T12:21:06;4.90;;;4.40;;
15153;SDS011;7677;41.896;25.004;2023-07-20T12:23:37;5.53;;;4.45;;
15153;SDS011;7677;41.896;25.004;2023-07-20T12:26:06;4.80;;;4.25;;
15153;SDS011;7677;41.896;25.004;2023-07-20T12:28:35;4.90;;;4.50;;
15153;SDS011;7677;41.896;25.004;2023-07-20T12:31:02;12.57;;;5.25;;
15153;SDS011;7677;41.896;25.004;2023-07-20T12:33:31;7.53;;;4.53;;
15153;SDS011;7677;41.896;25.004;2023-07-20T12:35:58;6.45;;;5.25;;
15153;SDS011;7677;41.896;25.004;2023-07-20T12:38:26;5.15;;;4.25;;
15153;SDS011;7677;41.896;25.004;2023-07-20T12:40:53;5.35;;;4.72;;
15153;SDS011;7677;41.896;25.004;2023-07-20T12:43:21;5.47;;;4.70;;
15153;SDS011;7677;41.896;25.004;2023-07-20T12:45:48;7.68;;;5.05;;
15153;SDS011;7677;41.896;25.004;2023-07-20T12:48:15;6.88;;;4.57;;
15153;SDS011;7677;41.896;25.004;2023-07-20T12:50:43;4.93;;;4.40;;
15153;SDS011;7677;41.896;25.004;2023-07-20T12:53:10;6.45;;;4.38;;
15153;SDS011;7677;41.896;25.004;2023-07-20T12:55:37;5.47;;;4.93;;
15153;SDS011;7677;41.896;25.004;2023-07-20T12:58:05;6.90;;;5.05;;
15153;SDS011;7677;41.896;25.004;2023-07-20T13:00:33;4.88;;;4.35;;
15153;SDS011;7677;41.896;25.004;2023-07-20T13:03:00;4.95;;;4.45;;
15153;SDS011;7677;41.896;25.004;2023-07-20T13:05:30;7.85;;;4.82;;
15153;SDS011;7677;41.896;25.004;2023-07-20T13:07:59;6.80;;;4.57;;
15153;SDS011;7677;41.896;25.004;2023-07-20T13:10:26;8.15;;;4.82;;
15153;SDS011;7677;41.896;25.004;2023-07-20T13:12:53;5.18;;;4.65;;
15153;SDS011;7677;41.896;25.004;2023-07-20T13:15:20;5.90;;;4.82;;
15153;SDS011;7677;41.896;25.004;2023-07-20T13:17:50;5.05;;;4.10;;
15153;SDS011;7677;41.896;25.004;2023-07-20T13:20:17;6.53;;;5.18;;
15153;SDS011;7677;41.896;25.004;2023-07-20T13:22:44;6.28;;;4.57;;
15153;SDS011;7677;41.896;25.004;2023-07-20T13:25:12;5.80;;;4.95;;
15153;SDS011;7677;41.896;25.004;2023-07-20T13:27:39;6.20;;;4.70;;
15153;SDS011;7677;41.896;25.004;2023-07-20T13:30:07;5.68;;;5.07;;
15153;SDS011;7677;41.896;25.004;2023-07-20T13:32:38;5.72;;;4.68;;
15153;SDS011;7677;41.896;25.004;2023-07-20T13:35:06;7.72;;;4.47;;
15153;SDS011;7677;41.896;25.004;2023-07-20T13:37:33;7.43;;;4.38;;
15153;SDS011;7677;41.896;25.004;2023-07-20T13:40:00;5.13;;;4.38;;
15153;SDS011;7677;41.896;25.004;2023-07-20T13:42:29;5.03;;;4.47;;
15153;SDS011;7677;41.896;25.004;2023-07-20T13:44:56;5.07;;;4.57;;
15153;SDS011;7677;41.896;25.004;2023-07-20T13:47:24;6.00;;;4.50;;
15153;SDS011;7677;41.896;25.004;2023-07-20T13:49:51;4.97;;;4.28;;
15153;SDS011;7677;41.896;25.004;2023-07-20T13:52:18;4.55;;;4.10;;
15153;SDS011;7677;41.896;25.004;2023-07-20T13:54:45;4.78;;;4.22;;
15153;SDS011;7677;41.896;25.004;2023-07-20T13:57:12;5.63;;;4.50;;
15153;SDS011;7677;41.896;25.004;2023-07-20T13:59:41;5.30;;;4.80;;
15153;SDS011;7677;41.896;25.004;2023-07-20T14:02:08;6.13;;;4.30;;
15153;SDS011;7677;41.896;25.004;2023-07-20T14:04:35;5.90;;;4.43;;
15153;SDS011;7677;41.896;25.004;2023-07-20T14:07:02;5.35;;;4.50;;
15153;SDS011;7677;41.896;25.004;2023-07-20T14:09:29;5.25;;;4.30;;
15153;SDS011;7677;41.896;25.004;2023-07-20T14:11:56;6.60;;;4.95;;
15153;SDS011;7677;41.896;25.004;2023-07-20T14:14:24;9.10;;;4.53;;
15153;SDS011;7677;41.896;25.004;2023-07-20T14:16:52;4.80;;;4.30;;
15153;SDS011;7677;41.896;25.004;2023-07-20T14:19:19;7.13;;;4.70;;
15153;SDS011;7677;41.896;25.004;2023-07-20T14:21:46;6.25;;;5.22;;
15153;SDS011;7677;41.896;25.004;2023-07-20T14:24:13;5.15;;;4.65;;
15153;SDS011;7677;41.896;25.004;2023-07-20T14:26:40;6.00;;;4.70;;
15153;SDS011;7677;41.896;25.004;2023-07-20T14:29:07;6.32;;;4.90;;
15153;SDS011;7677;41.896;25.004;2023-07-20T14:31:34;5.22;;;4.32;;
15153;SDS011;7677;41.896;25.004;2023-07-20T14:34:02;5.60;;;4.70;;
15153;SDS011;7677;41.896;25.004;2023-07-20T14:36:29;6.80;;;5.18;;
15153;SDS011;7677;41.896;25.004;2023-07-20T14:38:56;5.47;;;4.43;;
15153;SDS011;7677;41.896;25.004;2023-07-20T14:41:23;5.95;;;4.57;;
15153;SDS011;7677;41.896;25.004;2023-07-20T14:43:51;10.18;;;5.05;;
15153;SDS011;7677;41.896;25.004;2023-07-20T14:46:18;5.55;;;5.05;;
15153;SDS011;7677;41.896;25.004;2023-07-20T14:48:45;5.22;;;4.53;;
15153;SDS011;7677;41.896;25.004;2023-07-20T14:51:13;5.53;;;4.82;;
15153;SDS011;7677;41.896;25.004;2023-07-20T14:53:40;5.75;;;4.60;;
15153;SDS011;7677;41.896;25.004;2023-07-20T14:56:07;6.22;;;4.90;;
15153;SDS011;7677;41.896;25.004;2023-07-20T14:58:35;7.65;;;5.13;;
15153;SDS011;7677;41.896;25.004;2023-07-20T15:01:02;4.97;;;4.47;;